sensor_id;sensor_type;location;lat;lon;timestamp;temperature;humidity
11229;DHT22;5671;47.936;8.716;2022-10-31T00:00:16;6.10;81.20
11229;DHT22;5671;47.936;8.716;2022-10-31T00:02:44;6.10;81.60
11229;DHT22;5671;47.936;8.716;2022-10-31T00:05:11;6.10;82.00
11229;DHT22;5671;47.936;8.716;2022-10-31T00:07:38;6.10;82.40
11229;DHT22;5671;47.936;8.716;2022-10-31T00:10:07;6.00;82.80
11229;DHT22;5671;47.936;8.716;2022-10-31T00:12:34;6.00;82.20
11229;DHT22;5671;47.936;8.716;2022-10-31T00:15:01;6.00;82.60
11229;DHT22;5671;47.936;8.716;2022-10-31T00:17:28;6.00;82.20
11229;DHT22;5671;47.936;8.716;2022-10-31T00:19:56;5.90;82.40
11229;DHT22;5671;47.936;8.716;2022-10-31T00:22:23;5.90;81.90
11229;DHT22;5671;47.936;8.716;2022-10-31T00:24:50;5.90;81.50
11229;DHT22;5671;47.936;8.716;2022-10-31T00:27:17;5.90;82.10
11229;DHT22;5671;47.936;8.716;2022-10-31T00:29:44;5.80;82.70
11229;DHT22;5671;47.936;8.716;2022-10-31T00:32:10;5.80;83.10
11229;DHT22;5671;47.936;8.716;2022-10-31T00:34:37;5.70;83.40
11229;DHT22;5671;47.936;8.716;2022-10-31T00:37:06;5.70;83.80
11229;DHT22;5671;47.936;8.716;2022-10-31T00:39:33;5.70;84.10
11229;DHT22;5671;47.936;8.716;2022-10-31T00:41:59;5.70;83.30
11229;DHT22;5671;47.936;8.716;2022-10-31T00:44:26;5.70;83.20
11229;DHT22;5671;47.936;8.716;2022-10-31T00:46:53;5.70;83.20
11229;DHT22;5671;47.936;8.716;2022-10-31T00:49:20;5.70;82.60
11229;DHT22;5671;47.936;8.716;2022-10-31T00:51:47;5.70;82.40
11229;DHT22;5671;47.936;8.716;2022-10-31T00:54:15;5.60;83.00
11229;DHT22;5671;47.936;8.716;2022-10-31T00:56:42;5.60;82.60
11229;DHT22;5671;47.936;8.716;2022-10-31T00:59:09;5.60;82.40
11229;DHT22;5671;47.936;8.716;2022-10-31T01:01:36;5.60;82.40
11229;DHT22;5671;47.936;8.716;2022-10-31T01:04:03;5.50;82.40
11229;DHT22;5671;47.936;8.716;2022-10-31T01:06:30;5.50;82.70
11229;DHT22;5671;47.936;8.716;2022-10-31T01:08:57;5.50;82.20
11229;DHT22;5671;47.936;8.716;2022-10-31T01:11:26;5.50;82.00
11229;DHT22;5671;47.936;8.716;2022-10-31T01:13:53;5.50;82.10
11229;DHT22;5671;47.936;8.716;2022-10-31T01:16:22;5.40;81.90
11229;DHT22;5671;47.936;8.716;2022-10-31T01:18:49;5.40;82.30
11229;DHT22;5671;47.936;8.716;2022-10-31T01:21:18;5.40;83.00
11229;DHT22;5671;47.936;8.716;2022-10-31T01:23:45;5.30;82.20
11229;DHT22;5671;47.936;8.716;2022-10-31T01:26:14;5.30;82.60
11229;DHT22;5671;47.936;8.716;2022-10-31T01:28:46;5.30;82.50
11229;DHT22;5671;47.936;8.716;2022-10-31T01:31:14;5.30;82.60
11229;DHT22;5671;47.936;8.716;2022-10-31T01:33:41;5.20;82.40
11229;DHT22;5671;47.936;8.716;2022-10-31T01:36:13;5.20;83.00
11229;DHT22;5671;47.936;8.716;2022-10-31T01:38:41;5.20;82.30
11229;DHT22;5671;47.936;8.716;2022-10-31T01:41:09;5.20;82.30
11229;DHT22;5671;47.936;8.716;2022-10-31T01:43:46;5.10;82.60
11229;DHT22;5671;47.936;8.716;2022-10-31T01:46:14;5.10;82.60
11229;DHT22;5671;47.936;8.716;2022-10-31T01:48:42;5.10;82.50
11229;DHT22;5671;47.936;8.716;2022-10-31T01:51:10;5.10;82.40
11229;DHT22;5671;47.936;8.716;2022-10-31T01:53:40;5.10;82.40
11229;DHT22;5671;47.936;8.716;2022-10-31T01:56:08;5.10;82.90
11229;DHT22;5671;47.936;8.716;2022-10-31T01:58:35;5.00;83.00
11229;DHT22;5671;47.936;8.716;2022-10-31T02:01:04;5.00;82.80
11229;DHT22;5671;47.936;8.716;2022-10-31T02:03:32;5.00;82.50
11229;DHT22;5671;47.936;8.716;2022-10-31T02:05:59;5.00;82.80
11229;DHT22;5671;47.936;8.716;2022-10-31T02:08:28;5.00;82.80
11229;DHT22;5671;47.936;8.716;2022-10-31T02:10:56;4.90;82.90
11229;DHT22;5671;47.936;8.716;2022-10-31T02:13:24;4.90;82.90
11229;DHT22;5671;47.936;8.716;2022-10-31T02:15:55;4.90;82.80
11229;DHT22;5671;47.936;8.716;2022-10-31T02:18:26;4.90;82.70
11229;DHT22;5671;47.936;8.716;2022-10-31T02:21:02;4.90;82.70
11229;DHT22;5671;47.936;8.716;2022-10-31T02:23:56;4.90;82.90
11229;DHT22;5671;47.936;8.716;2022-10-31T02:26:44;4.90;83.00
11229;DHT22;5671;47.936;8.716;2022-10-31T02:29:45;4.80;82.90
11229;DHT22;5671;47.936;8.716;2022-10-31T02:32:21;4.80;83.30
11229;DHT22;5671;47.936;8.716;2022-10-31T02:34:58;4.80;83.50
11229;DHT22;5671;47.936;8.716;2022-10-31T02:37:32;4.80;83.20
11229;DHT22;5671;47.936;8.716;2022-10-31T02:40:05;4.80;83.20
11229;DHT22;5671;47.936;8.716;2022-10-31T02:42:39;4.80;83.10
11229;DHT22;5671;47.936;8.716;2022-10-31T02:45:13;4.70;83.60
11229;DHT22;5671;47.936;8.716;2022-10-31T02:47:42;4.70;83.00
11229;DHT22;5671;47.936;8.716;2022-10-31T02:50:15;4.70;82.90
11229;DHT22;5671;47.936;8.716;2022-10-31T02:52:42;4.70;83.00
11229;DHT22;5671;47.936;8.716;2022-10-31T02:55:11;4.70;83.00
11229;DHT22;5671;47.936;8.716;2022-10-31T02:57:40;4.60;82.60
11229;DHT22;5671;47.936;8.716;2022-10-31T03:00:09;4.60;82.50
11229;DHT22;5671;47.936;8.716;2022-10-31T03:02:52;4.60;82.50
11229;DHT22;5671;47.936;8.716;2022-10-31T03:05:32;4.50;83.10
11229;DHT22;5671;47.936;8.716;2022-10-31T03:08:08;4.50;83.70
11229;DHT22;5671;47.936;8.716;2022-10-31T03:10:41;4.50;84.70
11229;DHT22;5671;47.936;8.716;2022-10-31T03:13:14;4.50;84.90
11229;DHT22;5671;47.936;8.716;2022-10-31T03:15:45;4.50;84.60
11229;DHT22;5671;47.936;8.716;2022-10-31T03:18:17;4.50;84.40
11229;DHT22;5671;47.936;8.716;2022-10-31T03:20:52;4.50;84.30
11229;DHT22;5671;47.936;8.716;2022-10-31T03:23:22;4.50;83.90
11229;DHT22;5671;47.936;8.716;2022-10-31T03:25:51;4.50;83.70
11229;DHT22;5671;47.936;8.716;2022-10-31T03:28:23;4.50;83.60
11229;DHT22;5671;47.936;8.716;2022-10-31T03:30:53;4.40;83.80
11229;DHT22;5671;47.936;8.716;2022-10-31T03:33:27;4.40;84.00
11229;DHT22;5671;47.936;8.716;2022-10-31T03:35:57;4.40;84.90
11229;DHT22;5671;47.936;8.716;2022-10-31T03:38:25;4.40;84.60
11229;DHT22;5671;47.936;8.716;2022-10-31T03:40:54;4.40;84.40
11229;DHT22;5671;47.936;8.716;2022-10-31T03:43:26;4.40;83.90
11229;DHT22;5671;47.936;8.716;2022-10-31T03:45:55;4.30;83.70
11229;DHT22;5671;47.936;8.716;2022-10-31T03:48:25;4.30;83.50
11229;DHT22;5671;47.936;8.716;2022-10-31T03:51:00;4.30;84.50
11229;DHT22;5671;47.936;8.716;2022-10-31T03:53:33;4.30;83.80
11229;DHT22;5671;47.936;8.716;2022-10-31T03:56:03;4.30;84.20
11229;DHT22;5671;47.936;8.716;2022-10-31T03:58:36;4.30;83.40
11229;DHT22;5671;47.936;8.716;2022-10-31T04:01:06;4.20;83.40
11229;DHT22;5671;47.936;8.716;2022-10-31T04:03:36;4.20;83.60
11229;DHT22;5671;47.936;8.716;2022-10-31T04:06:06;4.20;83.70
11229;DHT22;5671;47.936;8.716;2022-10-31T04:08:41;4.20;83.70
11229;DHT22;5671;47.936;8.716;2022-10-31T04:11:09;4.20;84.50
11229;DHT22;5671;47.936;8.716;2022-10-31T04:13:40;4.10;85.00
11229;DHT22;5671;47.936;8.716;2022-10-31T04:16:08;4.20;84.60
11229;DHT22;5671;47.936;8.716;2022-10-31T04:18:37;4.20;84.30
11229;DHT22;5671;47.936;8.716;2022-10-31T04:21:06;4.10;84.40
11229;DHT22;5671;47.936;8.716;2022-10-31T04:23:35;4.10;84.00
11229;DHT22;5671;47.936;8.716;2022-10-31T04:26:02;4.10;83.90
11229;DHT22;5671;47.936;8.716;2022-10-31T04:28:29;4.10;83.50
11229;DHT22;5671;47.936;8.716;2022-10-31T04:30:58;4.10;83.80
11229;DHT22;5671;47.936;8.716;2022-10-31T04:33:25;4.10;83.90
11229;DHT22;5671;47.936;8.716;2022-10-31T04:35:53;4.10;84.00
11229;DHT22;5671;47.936;8.716;2022-10-31T04:38:20;4.00;83.90
11229;DHT22;5671;47.936;8.716;2022-10-31T04:40:47;4.00;84.00
11229;DHT22;5671;47.936;8.716;2022-10-31T04:43:14;4.00;83.90
11229;DHT22;5671;47.936;8.716;2022-10-31T04:45:41;4.00;84.00
11229;DHT22;5671;47.936;8.716;2022-10-31T04:48:07;4.00;84.20
11229;DHT22;5671;47.936;8.716;2022-10-31T04:50:35;4.00;84.10
11229;DHT22;5671;47.936;8.716;2022-10-31T04:53:03;4.00;83.90
11229;DHT22;5671;47.936;8.716;2022-10-31T04:55:30;3.90;84.80
11229;DHT22;5671;47.936;8.716;2022-10-31T04:57:57;3.90;84.50
11229;DHT22;5671;47.936;8.716;2022-10-31T05:00:24;3.90;84.70
11229;DHT22;5671;47.936;8.716;2022-10-31T05:02:52;3.90;84.90
11229;DHT22;5671;47.936;8.716;2022-10-31T05:05:21;3.80;85.30
11229;DHT22;5671;47.936;8.716;2022-10-31T05:07:49;3.90;85.30
11229;DHT22;5671;47.936;8.716;2022-10-31T05:10:20;3.80;85.30
11229;DHT22;5671;47.936;8.716;2022-10-31T05:12:47;3.80;84.40
11229;DHT22;5671;47.936;8.716;2022-10-31T05:15:15;3.80;84.00
11229;DHT22;5671;47.936;8.716;2022-10-31T05:17:42;3.70;83.80
11229;DHT22;5671;47.936;8.716;2022-10-31T05:20:10;3.70;84.00
11229;DHT22;5671;47.936;8.716;2022-10-31T05:22:42;3.70;84.30
11229;DHT22;5671;47.936;8.716;2022-10-31T05:25:09;3.70;84.70
11229;DHT22;5671;47.936;8.716;2022-10-31T05:27:39;3.70;84.90
11229;DHT22;5671;47.936;8.716;2022-10-31T05:30:07;3.70;84.80
11229;DHT22;5671;47.936;8.716;2022-10-31T05:32:37;3.70;85.00
11229;DHT22;5671;47.936;8.716;2022-10-31T05:35:05;3.70;84.80
11229;DHT22;5671;47.936;8.716;2022-10-31T05:37:33;3.70;84.50
11229;DHT22;5671;47.936;8.716;2022-10-31T05:40:00;3.60;84.40
11229;DHT22;5671;47.936;8.716;2022-10-31T05:42:27;3.60;84.70
11229;DHT22;5671;47.936;8.716;2022-10-31T05:44:55;3.60;84.80
11229;DHT22;5671;47.936;8.716;2022-10-31T05:47:22;3.60;85.10
11229;DHT22;5671;47.936;8.716;2022-10-31T05:49:49;3.60;85.60
11229;DHT22;5671;47.936;8.716;2022-10-31T05:52:16;3.60;85.20
11229;DHT22;5671;47.936;8.716;2022-10-31T05:54:44;3.60;84.90
11229;DHT22;5671;47.936;8.716;2022-10-31T05:57:10;3.60;85.40
11229;DHT22;5671;47.936;8.716;2022-10-31T05:59:37;3.50;86.10
11229;DHT22;5671;47.936;8.716;2022-10-31T06:02:06;3.50;86.00
11229;DHT22;5671;47.936;8.716;2022-10-31T06:04:33;3.50;86.10
11229;DHT22;5671;47.936;8.716;2022-10-31T06:06:59;3.50;86.70
11229;DHT22;5671;47.936;8.716;2022-10-31T06:09:26;3.50;86.90
11229;DHT22;5671;47.936;8.716;2022-10-31T06:11:53;3.50;86.50
11229;DHT22;5671;47.936;8.716;2022-10-31T06:14:20;3.50;85.90
11229;DHT22;5671;47.936;8.716;2022-10-31T06:16:47;3.50;86.50
11229;DHT22;5671;47.936;8.716;2022-10-31T06:19:15;3.50;86.40
11229;DHT22;5671;47.936;8.716;2022-10-31T06:21:42;3.60;86.40
11229;DHT22;5671;47.936;8.716;2022-10-31T06:24:09;3.60;86.40
11229;DHT22;5671;47.936;8.716;2022-10-31T06:26:36;3.60;86.50
11229;DHT22;5671;47.936;8.716;2022-10-31T06:29:03;3.70;86.90
11229;DHT22;5671;47.936;8.716;2022-10-31T06:31:30;3.70;87.10
11229;DHT22;5671;47.936;8.716;2022-10-31T06:33:57;3.60;86.80
11229;DHT22;5671;47.936;8.716;2022-10-31T06:36:25;3.70;86.40
11229;DHT22;5671;47.936;8.716;2022-10-31T06:38:52;3.70;86.20
11229;DHT22;5671;47.936;8.716;2022-10-31T06:41:19;3.70;86.50
11229;DHT22;5671;47.936;8.716;2022-10-31T06:43:46;3.80;86.30
11229;DHT22;5671;47.936;8.716;2022-10-31T06:46:13;3.80;86.30
11229;DHT22;5671;47.936;8.716;2022-10-31T06:48:40;3.90;86.30
11229;DHT22;5671;47.936;8.716;2022-10-31T06:51:08;3.90;86.60
11229;DHT22;5671;47.936;8.716;2022-10-31T06:53:36;4.00;87.00
11229;DHT22;5671;47.936;8.716;2022-10-31T06:56:04;4.00;87.30
11229;DHT22;5671;47.936;8.716;2022-10-31T06:58:31;4.10;87.00
11229;DHT22;5671;47.936;8.716;2022-10-31T07:00:59;4.20;87.20
11229;DHT22;5671;47.936;8.716;2022-10-31T07:03:26;4.30;87.30
11229;DHT22;5671;47.936;8.716;2022-10-31T07:05:54;4.50;87.50
11229;DHT22;5671;47.936;8.716;2022-10-31T07:08:21;4.70;87.30
11229;DHT22;5671;47.936;8.716;2022-10-31T07:10:53;4.90;86.80
11229;DHT22;5671;47.936;8.716;2022-10-31T07:13:21;5.00;86.00
11229;DHT22;5671;47.936;8.716;2022-10-31T07:15:51;5.20;85.70
11229;DHT22;5671;47.936;8.716;2022-10-31T07:18:19;5.30;85.40
11229;DHT22;5671;47.936;8.716;2022-10-31T07:20:46;5.40;85.30
11229;DHT22;5671;47.936;8.716;2022-10-31T07:23:14;5.40;85.20
11229;DHT22;5671;47.936;8.716;2022-10-31T07:25:41;5.50;85.10
11229;DHT22;5671;47.936;8.716;2022-10-31T07:28:10;5.50;85.80
11229;DHT22;5671;47.936;8.716;2022-10-31T07:30:37;5.60;85.80
11229;DHT22;5671;47.936;8.716;2022-10-31T07:33:05;5.70;85.80
11229;DHT22;5671;47.936;8.716;2022-10-31T07:35:32;5.80;85.70
11229;DHT22;5671;47.936;8.716;2022-10-31T07:38:07;5.90;85.80
11229;DHT22;5671;47.936;8.716;2022-10-31T07:40:34;6.10;86.10
11229;DHT22;5671;47.936;8.716;2022-10-31T07:43:01;6.20;86.10
11229;DHT22;5671;47.936;8.716;2022-10-31T07:45:30;6.40;85.80
11229;DHT22;5671;47.936;8.716;2022-10-31T07:47:57;6.50;85.60
11229;DHT22;5671;47.936;8.716;2022-10-31T07:50:26;6.70;85.70
11229;DHT22;5671;47.936;8.716;2022-10-31T07:52:59;6.80;85.30
11229;DHT22;5671;47.936;8.716;2022-10-31T07:55:27;7.00;85.10
11229;DHT22;5671;47.936;8.716;2022-10-31T07:57:58;7.20;83.70
11229;DHT22;5671;47.936;8.716;2022-10-31T08:00:26;7.40;84.00
11229;DHT22;5671;47.936;8.716;2022-10-31T08:02:58;7.60;82.40
11229;DHT22;5671;47.936;8.716;2022-10-31T08:05:25;7.80;81.90
11229;DHT22;5671;47.936;8.716;2022-10-31T08:07:52;8.00;81.10
11229;DHT22;5671;47.936;8.716;2022-10-31T08:10:20;8.10;80.80
11229;DHT22;5671;47.936;8.716;2022-10-31T08:12:47;8.30;80.80
11229;DHT22;5671;47.936;8.716;2022-10-31T08:15:14;8.40;80.40
11229;DHT22;5671;47.936;8.716;2022-10-31T08:17:41;8.60;80.50
11229;DHT22;5671;47.936;8.716;2022-10-31T08:20:19;8.70;79.40
11229;DHT22;5671;47.936;8.716;2022-10-31T08:26:07;9.00;79.10
11229;DHT22;5671;47.936;8.716;2022-10-31T08:28:34;9.20;78.80
11229;DHT22;5671;47.936;8.716;2022-10-31T08:31:01;9.30;78.30
11229;DHT22;5671;47.936;8.716;2022-10-31T08:33:28;9.40;78.30
11229;DHT22;5671;47.936;8.716;2022-10-31T08:35:57;9.60;78.20
11229;DHT22;5671;47.936;8.716;2022-10-31T08:38:24;9.70;77.30
11229;DHT22;5671;47.936;8.716;2022-10-31T08:40:51;9.70;76.70
11229;DHT22;5671;47.936;8.716;2022-10-31T08:43:19;9.80;77.50
11229;DHT22;5671;47.936;8.716;2022-10-31T08:45:48;9.90;77.50
11229;DHT22;5671;47.936;8.716;2022-10-31T08:48:17;10.00;77.50
11229;DHT22;5671;47.936;8.716;2022-10-31T08:50:45;10.10;77.20
11229;DHT22;5671;47.936;8.716;2022-10-31T08:53:15;10.20;77.40
11229;DHT22;5671;47.936;8.716;2022-10-31T08:55:44;10.30;77.40
11229;DHT22;5671;47.936;8.716;2022-10-31T08:58:12;10.50;77.20
11229;DHT22;5671;47.936;8.716;2022-10-31T09:00:50;10.60;77.80
11229;DHT22;5671;47.936;8.716;2022-10-31T09:03:18;10.70;76.80
11229;DHT22;5671;47.936;8.716;2022-10-31T09:05:45;10.90;75.50
11229;DHT22;5671;47.936;8.716;2022-10-31T09:08:30;11.00;74.90
11229;DHT22;5671;47.936;8.716;2022-10-31T09:10:57;11.20;74.00
11229;DHT22;5671;47.936;8.716;2022-10-31T09:13:35;11.30;75.10
11229;DHT22;5671;47.936;8.716;2022-10-31T09:19:31;11.70;72.40
11229;DHT22;5671;47.936;8.716;2022-10-31T09:21:58;11.80;73.10
11229;DHT22;5671;47.936;8.716;2022-10-31T09:24:26;11.90;73.10
11229;DHT22;5671;47.936;8.716;2022-10-31T09:26:53;12.10;74.50
11229;DHT22;5671;47.936;8.716;2022-10-31T09:29:20;12.30;74.30
11229;DHT22;5671;47.936;8.716;2022-10-31T09:32:04;12.50;74.70
11229;DHT22;5671;47.936;8.716;2022-10-31T09:34:45;12.80;74.30
11229;DHT22;5671;47.936;8.716;2022-10-31T09:37:12;13.10;73.50
11229;DHT22;5671;47.936;8.716;2022-10-31T09:39:40;13.50;72.90
11229;DHT22;5671;47.936;8.716;2022-10-31T09:42:23;13.90;71.80
11229;DHT22;5671;47.936;8.716;2022-10-31T09:45:01;14.20;70.90
11229;DHT22;5671;47.936;8.716;2022-10-31T09:47:40;14.70;68.80
11229;DHT22;5671;47.936;8.716;2022-10-31T09:51:03;15.10;68.50
11229;DHT22;5671;47.936;8.716;2022-10-31T09:53:35;15.60;66.60
11229;DHT22;5671;47.936;8.716;2022-10-31T09:56:15;15.90;65.90
11229;DHT22;5671;47.936;8.716;2022-10-31T09:58:44;16.20;63.40
11229;DHT22;5671;47.936;8.716;2022-10-31T10:01:39;16.30;64.90
11229;DHT22;5671;47.936;8.716;2022-10-31T10:04:23;16.60;62.90
11229;DHT22;5671;47.936;8.716;2022-10-31T10:07:16;16.90;62.10
11229;DHT22;5671;47.936;8.716;2022-10-31T10:09:44;17.30;62.00
11229;DHT22;5671;47.936;8.716;2022-10-31T10:12:28;17.60;60.60
11229;DHT22;5671;47.936;8.716;2022-10-31T10:18:09;18.00;60.30
11229;DHT22;5671;47.936;8.716;2022-10-31T10:20:44;18.30;60.50
11229;DHT22;5671;47.936;8.716;2022-10-31T10:23:35;18.40;60.50
11229;DHT22;5671;47.936;8.716;2022-10-31T10:26:20;18.50;58.40
11229;DHT22;5671;47.936;8.716;2022-10-31T10:28:54;18.50;59.30
11229;DHT22;5671;47.936;8.716;2022-10-31T10:31:26;18.40;58.90
11229;DHT22;5671;47.936;8.716;2022-10-31T10:34:02;18.40;58.20
11229;DHT22;5671;47.936;8.716;2022-10-31T10:36:37;18.30;58.40
11229;DHT22;5671;47.936;8.716;2022-10-31T10:39:13;18.20;58.20
11229;DHT22;5671;47.936;8.716;2022-10-31T10:41:45;18.20;59.50
11229;DHT22;5671;47.936;8.716;2022-10-31T10:44:29;18.10;56.40
11229;DHT22;5671;47.936;8.716;2022-10-31T10:47:13;18.00;57.20
11229;DHT22;5671;47.936;8.716;2022-10-31T10:49:58;18.00;56.70
11229;DHT22;5671;47.936;8.716;2022-10-31T10:52:32;17.90;56.70
11229;DHT22;5671;47.936;8.716;2022-10-31T10:55:08;17.80;57.70
11229;DHT22;5671;47.936;8.716;2022-10-31T10:57:52;17.80;58.10
11229;DHT22;5671;47.936;8.716;2022-10-31T11:00:23;17.70;58.00
11229;DHT22;5671;47.936;8.716;2022-10-31T11:02:51;17.70;58.00
11229;DHT22;5671;47.936;8.716;2022-10-31T11:05:23;17.60;58.90
11229;DHT22;5671;47.936;8.716;2022-10-31T11:07:51;17.60;59.50
11229;DHT22;5671;47.936;8.716;2022-10-31T11:10:18;17.60;60.10
11229;DHT22;5671;47.936;8.716;2022-10-31T11:12:58;17.50;59.50
11229;DHT22;5671;47.936;8.716;2022-10-31T11:15:32;17.50;61.00
11229;DHT22;5671;47.936;8.716;2022-10-31T11:18:00;17.40;62.20
11229;DHT22;5671;47.936;8.716;2022-10-31T11:20:30;17.40;61.10
11229;DHT22;5671;47.936;8.716;2022-10-31T11:23:04;17.30;61.60
11229;DHT22;5671;47.936;8.716;2022-10-31T11:25:31;17.20;62.00
11229;DHT22;5671;47.936;8.716;2022-10-31T11:27:59;17.10;62.90
11229;DHT22;5671;47.936;8.716;2022-10-31T11:30:28;17.00;63.60
11229;DHT22;5671;47.936;8.716;2022-10-31T11:32:56;17.00;63.90
11229;DHT22;5671;47.936;8.716;2022-10-31T11:35:25;16.90;63.80
11229;DHT22;5671;47.936;8.716;2022-10-31T11:37:54;16.80;64.60
11229;DHT22;5671;47.936;8.716;2022-10-31T11:40:25;16.80;64.90
11229;DHT22;5671;47.936;8.716;2022-10-31T11:42:55;16.80;64.50
11229;DHT22;5671;47.936;8.716;2022-10-31T11:45:31;16.70;63.90
11229;DHT22;5671;47.936;8.716;2022-10-31T11:47:59;16.70;64.20
11229;DHT22;5671;47.936;8.716;2022-10-31T11:50:37;16.60;64.40
11229;DHT22;5671;47.936;8.716;2022-10-31T11:53:09;16.60;64.50
11229;DHT22;5671;47.936;8.716;2022-10-31T11:58:55;16.50;65.10
11229;DHT22;5671;47.936;8.716;2022-10-31T12:01:26;16.50;65.40
11229;DHT22;5671;47.936;8.716;2022-10-31T12:03:59;16.60;65.40
11229;DHT22;5671;47.936;8.716;2022-10-31T12:06:31;16.60;65.40
11229;DHT22;5671;47.936;8.716;2022-10-31T12:09:00;16.60;66.30
11229;DHT22;5671;47.936;8.716;2022-10-31T12:11:42;16.70;66.00
11229;DHT22;5671;47.936;8.716;2022-10-31T12:14:22;16.70;66.40
11229;DHT22;5671;47.936;8.716;2022-10-31T12:16:56;16.90;66.20
11229;DHT22;5671;47.936;8.716;2022-10-31T12:19:35;17.00;66.40
11229;DHT22;5671;47.936;8.716;2022-10-31T12:22:13;17.30;66.50
11229;DHT22;5671;47.936;8.716;2022-10-31T12:25:17;17.60;64.50
11229;DHT22;5671;47.936;8.716;2022-10-31T12:27:59;17.90;63.40
11229;DHT22;5671;47.936;8.716;2022-10-31T12:30:59;18.10;64.00
11229;DHT22;5671;47.936;8.716;2022-10-31T12:33:40;18.40;63.40
11229;DHT22;5671;47.936;8.716;2022-10-31T12:36:26;18.60;62.90
11229;DHT22;5671;47.936;8.716;2022-10-31T12:39:20;18.70;62.50
11229;DHT22;5671;47.936;8.716;2022-10-31T12:41:52;19.10;63.20
11229;DHT22;5671;47.936;8.716;2022-10-31T12:44:40;19.70;60.40
11229;DHT22;5671;47.936;8.716;2022-10-31T12:47:37;20.20;59.30
11229;DHT22;5671;47.936;8.716;2022-10-31T12:53:29;21.40;57.60
11229;DHT22;5671;47.936;8.716;2022-10-31T12:56:12;21.90;53.80
11229;DHT22;5671;47.936;8.716;2022-10-31T12:58:46;22.20;54.30
11229;DHT22;5671;47.936;8.716;2022-10-31T13:01:16;22.50;52.70
11229;DHT22;5671;47.936;8.716;2022-10-31T13:03:50;22.80;53.10
11229;DHT22;5671;47.936;8.716;2022-10-31T13:06:22;23.00;51.30
11229;DHT22;5671;47.936;8.716;2022-10-31T13:08:53;23.20;49.80
11229;DHT22;5671;47.936;8.716;2022-10-31T13:11:43;23.30;50.50
11229;DHT22;5671;47.936;8.716;2022-10-31T13:14:20;23.40;50.50
11229;DHT22;5671;47.936;8.716;2022-10-31T13:16:50;23.40;49.80
11229;DHT22;5671;47.936;8.716;2022-10-31T13:19:22;23.30;49.60
11229;DHT22;5671;47.936;8.716;2022-10-31T13:21:58;23.20;49.50
11229;DHT22;5671;47.936;8.716;2022-10-31T13:24:33;23.10;49.80
11229;DHT22;5671;47.936;8.716;2022-10-31T13:27:03;23.00;50.60
11229;DHT22;5671;47.936;8.716;2022-10-31T13:29:39;23.00;51.20
11229;DHT22;5671;47.936;8.716;2022-10-31T13:32:10;22.90;51.70
11229;DHT22;5671;47.936;8.716;2022-10-31T13:34:40;22.80;51.20
11229;DHT22;5671;47.936;8.716;2022-10-31T13:37:15;22.70;51.60
11229;DHT22;5671;47.936;8.716;2022-10-31T13:40:00;22.60;51.60
11229;DHT22;5671;47.936;8.716;2022-10-31T13:42:41;22.40;51.40
11229;DHT22;5671;47.936;8.716;2022-10-31T13:45:13;22.40;51.30
11229;DHT22;5671;47.936;8.716;2022-10-31T13:47:41;22.40;51.90
11229;DHT22;5671;47.936;8.716;2022-10-31T13:50:22;22.50;53.20
11229;DHT22;5671;47.936;8.716;2022-10-31T13:52:50;22.70;53.20
11229;DHT22;5671;47.936;8.716;2022-10-31T13:55:40;22.80;51.40
11229;DHT22;5671;47.936;8.716;2022-10-31T13:58:22;22.90;52.10
11229;DHT22;5671;47.936;8.716;2022-10-31T14:01:09;23.10;50.60
11229;DHT22;5671;47.936;8.716;2022-10-31T14:03:39;23.00;50.80
11229;DHT22;5671;47.936;8.716;2022-10-31T14:06:08;23.00;50.10
11229;DHT22;5671;47.936;8.716;2022-10-31T14:08:41;22.80;50.10
11229;DHT22;5671;47.936;8.716;2022-10-31T14:11:22;22.50;51.10
11229;DHT22;5671;47.936;8.716;2022-10-31T14:13:55;22.00;51.90
11229;DHT22;5671;47.936;8.716;2022-10-31T14:16:25;21.60;52.10
11229;DHT22;5671;47.936;8.716;2022-10-31T14:19:00;21.30;53.40
11229;DHT22;5671;47.936;8.716;2022-10-31T14:21:36;20.90;55.60
11229;DHT22;5671;47.936;8.716;2022-10-31T14:24:29;20.70;56.80
11229;DHT22;5671;47.936;8.716;2022-10-31T14:27:00;20.40;56.10
11229;DHT22;5671;47.936;8.716;2022-10-31T14:29:28;20.00;57.00
11229;DHT22;5671;47.936;8.716;2022-10-31T14:32:04;19.60;57.90
11229;DHT22;5671;47.936;8.716;2022-10-31T14:34:38;19.40;56.90
11229;DHT22;5671;47.936;8.716;2022-10-31T14:37:38;19.10;57.70
11229;DHT22;5671;47.936;8.716;2022-10-31T14:40:24;18.90;57.50
11229;DHT22;5671;47.936;8.716;2022-10-31T14:43:18;18.60;58.00
11229;DHT22;5671;47.936;8.716;2022-10-31T14:45:55;18.40;58.80
11229;DHT22;5671;47.936;8.716;2022-10-31T14:48:38;18.30;60.30
11229;DHT22;5671;47.936;8.716;2022-10-31T14:51:12;18.10;60.20
11229;DHT22;5671;47.936;8.716;2022-10-31T14:53:45;18.00;61.20
11229;DHT22;5671;47.936;8.716;2022-10-31T14:56:20;17.90;61.90
11229;DHT22;5671;47.936;8.716;2022-10-31T14:58:50;17.80;62.00
11229;DHT22;5671;47.936;8.716;2022-10-31T15:01:22;17.70;61.30
11229;DHT22;5671;47.936;8.716;2022-10-31T15:03:50;17.60;61.50
11229;DHT22;5671;47.936;8.716;2022-10-31T15:06:20;17.40;62.10
11229;DHT22;5671;47.936;8.716;2022-10-31T15:08:50;17.30;63.60
11229;DHT22;5671;47.936;8.716;2022-10-31T15:11:18;17.20;64.10
11229;DHT22;5671;47.936;8.716;2022-10-31T15:13:47;17.10;65.00
11229;DHT22;5671;47.936;8.716;2022-10-31T15:16:19;17.00;66.00
11229;DHT22;5671;47.936;8.716;2022-10-31T15:18:52;16.90;66.30
11229;DHT22;5671;47.936;8.716;2022-10-31T15:21:22;16.80;67.00
11229;DHT22;5671;47.936;8.716;2022-10-31T15:23:52;16.70;67.50
11229;DHT22;5671;47.936;8.716;2022-10-31T15:26:21;16.70;67.50
11229;DHT22;5671;47.936;8.716;2022-10-31T15:28:58;16.60;67.60
11229;DHT22;5671;47.936;8.716;2022-10-31T15:31:28;16.60;68.30
11229;DHT22;5671;47.936;8.716;2022-10-31T15:33:59;16.50;68.30
11229;DHT22;5671;47.936;8.716;2022-10-31T15:36:27;16.50;69.00
11229;DHT22;5671;47.936;8.716;2022-10-31T15:38:56;16.40;69.00
11229;DHT22;5671;47.936;8.716;2022-10-31T15:41:33;16.20;69.10
11229;DHT22;5671;47.936;8.716;2022-10-31T15:47:24;16.10;69.20
11229;DHT22;5671;47.936;8.716;2022-10-31T15:49:56;16.00;69.60
11229;DHT22;5671;47.936;8.716;2022-10-31T15:52:28;15.80;69.50
11229;DHT22;5671;47.936;8.716;2022-10-31T15:55:00;15.70;69.80
11229;DHT22;5671;47.936;8.716;2022-10-31T15:57:32;15.60;70.40
11229;DHT22;5671;47.936;8.716;2022-10-31T16:03:25;15.20;71.60
11229;DHT22;5671;47.936;8.716;2022-10-31T16:05:54;15.00;71.70
11229;DHT22;5671;47.936;8.716;2022-10-31T16:08:31;14.90;71.80
11229;DHT22;5671;47.936;8.716;2022-10-31T16:11:00;14.90;71.50
11229;DHT22;5671;47.936;8.716;2022-10-31T16:13:31;14.80;71.50
11229;DHT22;5671;47.936;8.716;2022-10-31T16:16:00;14.70;71.50
11229;DHT22;5671;47.936;8.716;2022-10-31T16:18:35;14.60;71.70
11229;DHT22;5671;47.936;8.716;2022-10-31T16:21:03;14.40;72.70
11229;DHT22;5671;47.936;8.716;2022-10-31T16:23:31;14.30;72.80
11229;DHT22;5671;47.936;8.716;2022-10-31T16:25:58;14.20;73.00
11229;DHT22;5671;47.936;8.716;2022-10-31T16:28:27;14.10;73.20
11229;DHT22;5671;47.936;8.716;2022-10-31T16:30:55;14.00;73.60
11229;DHT22;5671;47.936;8.716;2022-10-31T16:33:26;13.90;73.80
11229;DHT22;5671;47.936;8.716;2022-10-31T16:35:56;13.80;74.50
11229;DHT22;5671;47.936;8.716;2022-10-31T16:38:23;13.60;73.90
11229;DHT22;5671;47.936;8.716;2022-10-31T16:40:51;13.60;73.50
11229;DHT22;5671;47.936;8.716;2022-10-31T16:43:19;13.50;74.20
11229;DHT22;5671;47.936;8.716;2022-10-31T16:45:49;13.40;74.70